Time,TemperatureF,DewpointF,PressureIn,WindDirection,WindDirectionDegrees,WindSpeedMPH,WindSpeedGustMPH,Humidity,HourlyPrecipIn,Conditions,Clouds,dailyrainin,SolarRadiationWatts/m^2,SoftwareType,DateUTC
2013-02-04 00:02:00,44.0,36.0,-100.00,ENE,69,0.0,0.0,73,0.00,,,0.00,0.000000,,2013-02-04 06:02:00,
2013-02-04 00:11:00,44.0,36.0,-100.00,ENE,69,0.0,0.0,73,0.00,,,0.00,0.000000,,2013-02-04 06:11:00,
2013-02-04 00:21:00,44.0,36.0,-100.00,ENE,69,0.0,0.0,73,0.00,,,0.00,0.000000,,2013-02-04 06:21:00,
2013-02-04 00:32:00,44.0,37.0,-100.00,NNE,16,0.0,0.0,76,0.00,,,0.00,0.000000,,2013-02-04 06:32:00,
2013-02-04 00:52:00,44.0,37.0,-100.00,NNE,16,0.0,0.0,76,0.00,,,0.00,0.000000,,2013-02-04 06:52:00,
2013-02-04 01:02:00,44.0,37.0,-100.00,NNE,16,0.0,0.0,76,0.00,,,0.00,0.000000,,2013-02-04 07:02:00,
2013-02-04 01:11:00,44.0,37.0,-100.00,NNE,16,0.0,0.0,76,0.00,,,0.00,0.000000,,2013-02-04 07:11:00,
2013-02-04 01:21:00,44.0,37.0,-100.00,NNE,16,0.0,0.0,76,0.00,,,0.00,0.000000,,2013-02-04 07:21:00,
2013-02-04 01:52:00,46.0,37.0,-100.00,SW,234,0.0,2.0,71,0.00,,,0.00,0.000000,,2013-02-04 07:52:00,
2013-02-04 02:01:00,46.0,37.0,-100.00,SW,234,0.0,2.0,71,0.00,,,0.00,0.000000,,2013-02-04 08:01:00,
2013-02-04 02:11:00,46.0,37.0,-100.00,SW,234,0.0,2.0,71,0.00,,,0.00,0.000000,,2013-02-04 08:11:00,
2013-02-04 02:21:00,46.0,37.0,-100.00,SW,234,0.0,2.0,71,0.00,,,0.00,0.000000,,2013-02-04 08:21:00,
2013-02-04 02:31:00,46.0,37.0,-100.00,SW,234,0.0,2.0,71,0.00,,,0.00,0.000000,,2013-02-04 08:31:00,
2013-02-04 02:52:00,44.0,38.0,-100.00,South,171,0.0,0.0,80,0.00,,,0.00,0.000000,,2013-02-04 08:52:00,
2013-02-04 03:02:00,44.0,38.0,-100.00,South,171,0.0,0.0,80,0.00,,,0.00,0.000000,,2013-02-04 09:02:00,
2013-02-04 03:11:00,44.0,38.0,-100.00,South,171,0.0,0.0,80,0.00,,,0.00,0.000000,,2013-02-04 09:11:00,
2013-02-04 03:21:00,44.0,38.0,-100.00,South,171,0.0,0.0,80,0.00,,,0.00,0.000000,,2013-02-04 09:21:00,
2013-02-04 03:31:00,44.0,38.0,-100.00,South,171,0.0,0.0,80,0.00,,,0.00,0.000000,,2013-02-04 09:31:00,
2013-02-04 03:32:00,46.0,37.0,-100.00,East,89,0.0,2.0,72,0.00,,,0.00,0.000000,,2013-02-04 09:32:00,
2013-02-04 03:52:00,46.0,37.0,-100.00,East,89,0.0,2.0,72,0.00,,,0.00,0.000000,,2013-02-04 09:52:00,
2013-02-04 04:01:00,46.0,37.0,-100.00,East,89,0.0,2.0,72,0.00,,,0.00,0.000000,,2013-02-04 10:01:00,
2013-02-04 04:11:00,46.0,37.0,-100.00,East,89,0.0,2.0,72,0.00,,,0.00,0.000000,,2013-02-04 10:11:00,
2013-02-04 04:21:00,46.0,37.0,-100.00,East,89,0.0,2.0,72,0.00,,,0.00,0.000000,,2013-02-04 10:21:00,
2013-02-04 04:32:00,46.0,39.0,-100.00,ENE,61,2.0,3.0,76,0.00,,,-99.99,0.000000,,2013-02-04 10:32:00,
2013-02-04 04:52:00,46.0,39.0,-100.00,ENE,61,2.0,3.0,76,0.00,,,-99.99,0.000000,,2013-02-04 10:52:00,
2013-02-04 05:02:00,46.0,39.0,-100.00,ENE,61,2.0,3.0,76,0.00,,,-99.99,0.000000,,2013-02-04 11:02:00,
2013-02-04 05:11:00,46.0,39.0,-100.00,ENE,61,2.0,3.0,76,0.00,,,-99.99,0.000000,,2013-02-04 11:11:00,
2013-02-04 05:22:00,46.0,39.0,-100.00,ENE,61,2.0,3.0,76,0.00,,,-99.99,0.000000,,2013-02-04 11:22:00,
2013-02-04 05:32:00,45.0,37.0,-100.00,East,87,2.0,5.0,72,0.00,,,0.00,0.000000,,2013-02-04 11:32:00,
2013-02-04 05:52:00,45.0,37.0,-100.00,East,87,2.0,5.0,72,0.00,,,0.00,0.000000,,2013-02-04 11:52:00,
2013-02-04 06:02:00,45.0,37.0,-100.00,East,87,2.0,5.0,72,0.00,,,0.00,0.000000,,2013-02-04 12:02:00,
2013-02-04 06:12:00,45.0,37.0,-100.00,East,87,2.0,5.0,72,0.00,,,0.00,0.000000,,2013-02-04 12:12:00,
2013-02-04 06:22:00,45.0,37.0,-100.00,East,87,2.0,5.0,72,0.00,,,0.00,0.000000,,2013-02-04 12:22:00,
2013-02-04 06:32:00,46.0,36.0,-100.00,East,81,3.0,4.0,69,0.00,,,0.00,0.000000,,2013-02-04 12:32:00,
2013-02-04 06:53:00,46.0,36.0,-100.00,East,81,3.0,4.0,69,0.00,,,0.00,0.000000,,2013-02-04 12:53:00,
2013-02-04 07:02:00,46.0,36.0,-100.00,East,81,3.0,4.0,69,0.00,,,0.00,0.000000,,2013-02-04 13:02:00,
2013-02-04 07:12:00,46.0,36.0,-100.00,East,81,3.0,4.0,69,0.00,,,0.00,0.000000,,2013-02-04 13:12:00,
2013-02-04 07:21:00,46.0,36.0,-100.00,East,81,3.0,4.0,69,0.00,,,0.00,0.000000,,2013-02-04 13:21:00,
2013-02-04 07:32:00,48.0,34.0,-100.00,ESE,107,3.0,6.0,58,0.00,,,0.00,4.000000,,2013-02-04 13:32:00,
2013-02-04 07:52:00,48.0,34.0,-100.00,ESE,107,3.0,6.0,58,0.00,,,0.00,4.000000,,2013-02-04 13:52:00,
2013-02-04 08:03:00,48.0,34.0,-100.00,ESE,107,3.0,6.0,58,0.00,,,0.00,4.000000,,2013-02-04 14:03:00,
2013-02-04 08:12:00,48.0,34.0,-100.00,ESE,107,3.0,6.0,58,0.00,,,0.00,4.000000,,2013-02-04 14:12:00,
2013-02-04 08:22:00,48.0,34.0,-100.00,ESE,107,3.0,6.0,58,0.00,,,0.00,4.000000,,2013-02-04 14:22:00,
2013-02-04 08:32:00,50.0,37.0,-100.00,ESE,108,2.0,4.0,61,0.00,,,0.00,57.000000,,2013-02-04 14:32:00,
2013-02-04 08:52:00,50.0,37.0,-100.00,ESE,108,2.0,4.0,61,0.00,,,0.00,57.000000,,2013-02-04 14:52:00,
2013-02-04 09:03:00,50.0,37.0,-100.00,ESE,108,2.0,4.0,61,0.00,,,0.00,57.000000,,2013-02-04 15:03:00,
2013-02-04 09:12:00,50.0,37.0,-100.00,ESE,108,2.0,4.0,61,0.00,,,0.00,57.000000,,2013-02-04 15:12:00,
2013-02-04 09:23:00,50.0,37.0,-100.00,ESE,108,2.0,4.0,61,0.00,,,0.00,57.000000,,2013-02-04 15:23:00,
2013-02-04 09:32:00,54.0,37.0,-100.00,ESE,114,3.0,6.0,52,0.00,,,-99.99,179.000000,,2013-02-04 15:32:00,
2013-02-04 09:53:00,54.0,37.0,-100.00,ESE,114,3.0,6.0,52,0.00,,,-99.99,179.000000,,2013-02-04 15:53:00,
2013-02-04 10:03:00,54.0,37.0,-100.00,ESE,114,3.0,6.0,52,0.00,,,-99.99,179.000000,,2013-02-04 16:03:00,
2013-02-04 10:11:00,54.0,37.0,-100.00,ESE,114,3.0,6.0,52,0.00,,,-99.99,179.000000,,2013-02-04 16:11:00,
2013-02-04 10:22:00,54.0,37.0,-100.00,ESE,114,3.0,6.0,52,0.00,,,-99.99,179.000000,,2013-02-04 16:22:00,
2013-02-04 11:32:00,59.0,43.0,-100.00,SSE,164,5.0,9.0,55,-99.99,,,0.00,232.000000,,2013-02-04 17:32:00,
2013-02-04 11:52:00,59.0,43.0,-100.00,SSE,164,5.0,9.0,55,-99.99,,,0.00,232.000000,,2013-02-04 17:52:00,
2013-02-04 12:03:00,59.0,43.0,-100.00,SSE,164,5.0,9.0,55,-99.99,,,0.00,232.000000,,2013-02-04 18:03:00,
2013-02-04 12:11:00,59.0,43.0,-100.00,SSE,164,5.0,9.0,55,-99.99,,,0.00,232.000000,,2013-02-04 18:11:00,
2013-02-04 12:22:00,59.0,43.0,-100.00,SSE,164,5.0,9.0,55,-99.99,,,0.00,232.000000,,2013-02-04 18:22:00,
2013-02-04 12:32:00,60.0,45.0,-100.00,SSE,167,5.0,11.0,57,0.00,,,0.00,297.000000,,2013-02-04 18:32:00,
2013-02-04 12:52:00,60.0,45.0,-100.00,SSE,167,5.0,11.0,57,0.00,,,0.00,297.000000,,2013-02-04 18:52:00,
2013-02-04 13:02:00,60.0,45.0,-100.00,SSE,167,5.0,11.0,57,0.00,,,0.00,297.000000,,2013-02-04 19:02:00,
2013-02-04 13:11:00,60.0,45.0,-100.00,SSE,167,5.0,11.0,57,0.00,,,0.00,297.000000,,2013-02-04 19:11:00,
2013-02-04 13:22:00,60.0,45.0,-100.00,SSE,167,5.0,11.0,57,0.00,,,0.00,297.000000,,2013-02-04 19:22:00,
2013-02-04 13:32:00,60.0,47.0,-100.00,SSE,167,4.0,8.0,62,0.00,,,0.00,246.000000,,2013-02-04 19:32:00,
2013-02-04 13:52:00,60.0,47.0,-100.00,SSE,167,4.0,8.0,62,0.00,,,0.00,246.000000,,2013-02-04 19:52:00,
2013-02-04 14:02:00,60.0,47.0,-100.00,SSE,167,4.0,8.0,62,0.00,,,0.00,246.000000,,2013-02-04 20:02:00,
2013-02-04 14:12:00,60.0,47.0,-100.00,SSE,167,4.0,8.0,62,0.00,,,0.00,246.000000,,2013-02-04 20:12:00,
2013-02-04 14:22:00,60.0,47.0,-100.00,SSE,167,4.0,8.0,62,0.00,,,0.00,246.000000,,2013-02-04 20:22:00,
2013-02-04 14:32:00,59.0,48.0,-100.00,ESE,121,3.0,7.0,67,0.00,,,0.00,143.000000,,2013-02-04 20:32:00,
2013-02-04 14:52:00,59.0,48.0,-100.00,ESE,121,3.0,7.0,67,0.00,,,0.00,143.000000,,2013-02-04 20:52:00,
2013-02-04 15:02:00,59.0,48.0,-100.00,ESE,121,3.0,7.0,67,0.00,,,0.00,143.000000,,2013-02-04 21:02:00,
2013-02-04 15:11:00,59.0,48.0,-100.00,ESE,121,3.0,7.0,67,0.00,,,0.00,143.000000,,2013-02-04 21:11:00,
2013-02-04 15:22:00,59.0,48.0,-100.00,ESE,121,3.0,7.0,67,0.00,,,0.00,143.000000,,2013-02-04 21:22:00,
2013-02-04 15:32:00,58.0,50.0,-100.00,East,99,1.0,4.0,74,0.00,,,0.00,100.000000,,2013-02-04 21:32:00,
2013-02-04 15:52:00,58.0,50.0,-100.00,East,99,1.0,4.0,74,0.00,,,0.00,100.000000,,2013-02-04 21:52:00,
2013-02-04 16:02:00,58.0,50.0,-100.00,East,99,1.0,4.0,74,0.00,,,0.00,100.000000,,2013-02-04 22:02:00,
2013-02-04 16:12:00,58.0,50.0,-100.00,East,99,1.0,4.0,74,0.00,,,0.00,100.000000,,2013-02-04 22:12:00,
2013-02-04 16:21:00,58.0,50.0,-100.00,East,99,1.0,4.0,74,0.00,,,0.00,100.000000,,2013-02-04 22:21:00,
2013-02-04 16:32:00,57.0,49.0,-100.00,East,87,2.0,5.0,75,0.00,,,0.00,59.000000,,2013-02-04 22:32:00,
2013-02-04 16:52:00,57.0,49.0,-100.00,East,87,2.0,5.0,75,0.00,,,0.00,59.000000,,2013-02-04 22:52:00,
2013-02-04 17:01:00,57.0,49.0,-100.00,East,87,2.0,5.0,75,0.00,,,0.00,59.000000,,2013-02-04 23:01:00,
2013-02-04 17:11:00,57.0,49.0,-100.00,East,87,2.0,5.0,75,0.00,,,0.00,59.000000,,2013-02-04 23:11:00,
2013-02-04 17:21:00,57.0,49.0,-100.00,East,87,2.0,5.0,75,0.00,,,0.00,59.000000,,2013-02-04 23:21:00,
2013-02-04 17:52:00,57.0,50.0,-100.00,East,98,3.0,4.0,77,0.00,,,0.00,22.000000,,2013-02-04 23:52:00,
2013-02-04 18:01:00,57.0,50.0,-100.00,East,98,3.0,4.0,77,0.00,,,0.00,22.000000,,2013-02-05 00:01:00,
2013-02-04 18:11:00,57.0,50.0,-100.00,East,98,3.0,4.0,77,0.00,,,0.00,22.000000,,2013-02-05 00:11:00,
2013-02-04 18:22:00,57.0,50.0,-100.00,East,98,3.0,4.0,77,0.00,,,0.00,22.000000,,2013-02-05 00:22:00,
2013-02-04 18:31:00,57.0,50.0,-100.00,East,98,3.0,4.0,77,0.00,,,0.00,22.000000,,2013-02-05 00:31:00,
2013-02-04 18:32:00,56.0,50.0,-100.00,East,86,4.0,7.0,79,0.00,,,0.00,0.000000,,2013-02-05 00:32:00,
2013-02-04 18:52:00,56.0,50.0,-100.00,East,86,4.0,7.0,79,0.00,,,0.00,0.000000,,2013-02-05 00:52:00,
2013-02-04 19:02:00,56.0,50.0,-100.00,East,86,4.0,7.0,79,0.00,,,0.00,0.000000,,2013-02-05 01:02:00,
2013-02-04 19:11:00,56.0,50.0,-100.00,East,86,4.0,7.0,79,0.00,,,0.00,0.000000,,2013-02-05 01:11:00,
2013-02-04 19:22:00,56.0,50.0,-100.00,East,86,4.0,7.0,79,0.00,,,0.00,0.000000,,2013-02-05 01:22:00,
2013-02-04 19:32:00,55.0,48.0,-100.00,SE,124,3.0,6.0,77,0.00,,,0.00,0.000000,,2013-02-05 01:32:00,
2013-02-04 19:52:00,55.0,48.0,-100.00,SE,124,3.0,6.0,77,0.00,,,0.00,0.000000,,2013-02-05 01:52:00,
2013-02-04 20:01:00,55.0,48.0,-100.00,SE,124,3.0,6.0,77,0.00,,,0.00,0.000000,,2013-02-05 02:01:00,
2013-02-04 20:11:00,55.0,48.0,-100.00,SE,124,3.0,6.0,77,0.00,,,0.00,0.000000,,2013-02-05 02:11:00,
2013-02-04 20:22:00,55.0,48.0,-100.00,SE,124,3.0,6.0,77,0.00,,,0.00,0.000000,,2013-02-05 02:22:00,
2013-02-04 20:32:00,54.0,48.0,-100.00,ESE,104,2.0,5.0,79,0.00,,,0.00,0.000000,,2013-02-05 02:32:00,
2013-02-04 20:52:00,54.0,48.0,-100.00,ESE,104,2.0,5.0,79,0.00,,,0.00,0.000000,,2013-02-05 02:52:00,
2013-02-04 21:02:00,54.0,48.0,-100.00,ESE,104,2.0,5.0,79,0.00,,,0.00,0.000000,,2013-02-05 03:02:00,
2013-02-04 21:11:00,54.0,48.0,-100.00,ESE,104,2.0,5.0,79,0.00,,,0.00,0.000000,,2013-02-05 03:11:00,
2013-02-04 21:21:00,54.0,48.0,-100.00,ESE,104,2.0,5.0,79,0.00,,,0.00,0.000000,,2013-02-05 03:21:00,
2013-02-04 21:32:00,53.0,46.0,-100.00,ESE,122,2.0,5.0,77,0.00,,,0.00,0.000000,,2013-02-05 03:32:00,
2013-02-04 21:52:00,53.0,46.0,-100.00,ESE,122,2.0,5.0,77,0.00,,,0.00,0.000000,,2013-02-05 03:52:00,
2013-02-04 22:01:00,53.0,46.0,-100.00,ESE,122,2.0,5.0,77,0.00,,,0.00,0.000000,,2013-02-05 04:01:00,
2013-02-04 22:11:00,53.0,46.0,-100.00,ESE,122,2.0,5.0,77,0.00,,,0.00,0.000000,,2013-02-05 04:11:00,
2013-02-04 22:21:00,53.0,46.0,-100.00,ESE,122,2.0,5.0,77,0.00,,,0.00,0.000000,,2013-02-05 04:21:00,
2013-02-04 22:32:00,51.0,46.0,-100.00,ENE,71,1.0,4.0,83,0.00,,,0.00,0.000000,,2013-02-05 04:32:00,
2013-02-04 22:52:00,51.0,46.0,-100.00,ENE,71,1.0,4.0,83,0.00,,,0.00,0.000000,,2013-02-05 04:52:00,
2013-02-04 23:02:00,51.0,46.0,-100.00,ENE,71,1.0,4.0,83,0.00,,,0.00,0.000000,,2013-02-05 05:02:00,
2013-02-04 23:11:00,51.0,46.0,-100.00,ENE,71,1.0,4.0,83,0.00,,,0.00,0.000000,,2013-02-05 05:11:00,
2013-02-04 23:22:00,51.0,46.0,-100.00,ENE,71,1.0,4.0,83,0.00,,,0.00,0.000000,,2013-02-05 05:22:00,
2013-02-04 23:32:00,51.0,47.0,-100.00,ESE,111,2.0,4.0,86,0.00,,,0.00,0.000000,,2013-02-05 05:32:00,
2013-02-04 23:52:00,51.0,47.0,-100.00,ESE,111,2.0,4.0,86,0.00,,,0.00,0.000000,,2013-02-05 05:52:00,